Terminal Aerodrome Forecast
Issued by NWS

Home | Current Version | Previous Version | Text Only | Print | Product List | Glossary On
Versions: 1 2 3 4 5 6 7 8 9 10 11 12 13 14 15 16 17 18 19 20
429
FTUS42 KFFC 252337
TAFFTY
TAF
KFTY 252337Z 2600/2624 31006KT P6SM BKN045
     FM260100 31004KT P6SM SCT045 SCT250
     FM261100 02005KT P6SM BKN070
     FM261500 14007KT P6SM VCSH BKN025
     FM261800 17009KT 6SM -SHRA BKN030 OVC045 PROB30 2618/2622 3SM
      -TSRA BKN015CB
     FM262200 21010KT 6SM -SHRA BKN025=

USA.gov is the U.S. government's official web portal to all federal, state and local government web resources and services.